Terminal Aerodrome Forecast
Issued by NWS

Home | Current Version | Previous Version | Text Only | Print | Product List | Glossary On
Versions: 1 2 3 4 5 6 7 8 9 10 11 12 13 14 15 16 17 18 19 20 21 22 23 24 25 26 27 28 29 30 31 32 33 34 35 36 37 38 39 40
000
FTUS45 KGJT 070532
TAFDRO
TAF
KDRO 070532Z 0706/0806 02003KT P6SM VCSH SCT060 BKN080
      TEMPO 0706/0709 -SHRA BKN060
     FM071200 08003KT P6SM SCT080 BKN150
     FM071900 20009KT P6SM SCT110
     FM080200 31007KT P6SM FEW120 BKN200=

USA.gov is the U.S. government's official web portal to all federal, state and local government web resources and services.